Kathy C — 2CTI7 — position and weather

sailwx.info

Track history (hours):
 
Tides and Currents Weather Stations Pressure Air Temp Water Temp Dewpoint Dewpoint Depression Visibility Wind Speed Wind Dir Waves Ship Positions

Kathy C

Last reported at 2016-Aug-29 22:15 UTC. Time now 2016-Aug-30 01:15 UTC.
Position N 54°15' E 005°15'.

Length 106 m; draft 7 m.

Type: Cargo ship. MMSI: 235075591.

Date/timePositionNaut miles runAvg speedWind from/ knotsBaromVisibWave heightAir tempDewpointWater temp
2016-Aug-29 22:15N 54°15' E 005°15'710.2
2016-Aug-29 21:34N 54°08' E 005°09'1010.2
2016-Aug-29 20:33N 53°59' E 005°03'1010.2
2016-Aug-29 19:33N 53°49' E 004°58'5310.6
2016-Aug-29 14:33N 53°00' E 004°22'2311.2
2016-Aug-29 12:31N 52°41' E 004°02'86 9.5
2016-Aug-29 03:32N 51°38' E 002°27'10 9.6
2016-Aug-29 02:31N 51°30' E 002°17'1010.0
2016-Aug-29 01:34N 51°22' E 002°09'1110.5
2016-Aug-29 00:34N 51°13' E 002°01'1111.1
2016-Aug-28 23:34N 51°07' E 001°47'1212.2
2016-Aug-28 22:34N 50°57' E 001°34'6711.2
2016-Aug-28 16:33N 50°20' E 000°07'1111.6
2016-Aug-28 15:33N 50°17' W 000°10'1211.1
2016-Aug-28 14:26N 50°13' W 000°29'20710.4
2016-Aug-27 18:33N 48°51' W 005°21'10 9.6
2016-Aug-27 17:33N 48°46' W 005°34'10 9.5
2016-Aug-27 16:33N 48°38' W 005°41'10 9.5
2016-Aug-27 15:34N 48°29' W 005°48'10 9.6
2016-Aug-27 14:33N 48°21' W 005°54'10 9.9
2016-Aug-27 13:33N 48°12' W 006°01'1010.1
2016-Aug-27 12:33N 48°03' W 006°08'1010.3
2016-Aug-27 11:33N 47°54' W 006°16'2211.0
2016-Aug-27 09:33N 47°35' W 006°32'  
2016-Aug-24 08:04N 41°06' W 009°21'811.2
2016-Aug-24 07:23N 40°58' W 009°21'1211.0
2016-Aug-24 06:15N 40°46' W 009°24'6311.0
2016-Aug-24 00:32N 39°45' W 009°40'2311.1
2016-Aug-23 22:27N 39°22' W 009°46'1110.5
2016-Aug-23 21:24N 39°11' W 009°48'910.9
2016-Aug-23 20:33N 39°02' W 009°50'1110.8
2016-Aug-23 19:33N 38°51' W 009°51'1111.2
2016-Aug-23 18:33N 38°40' W 009°51'1111.2
2016-Aug-23 17:33N 38°29' W 009°47'1110.7
2016-Aug-23 16:33N 38°19' W 009°44'1110.5
2016-Aug-23 15:33N 38°09' W 009°41'1110.5
2016-Aug-23 14:33N 37°58' W 009°38'1110.7
2016-Aug-23 13:33N 37°48' W 009°35'1110.9
2016-Aug-23 12:34N 37°37' W 009°32'1111.0
2016-Aug-23 11:33N 37°27' W 009°28'1111.1
2016-Aug-23 10:33N 37°16' W 009°25'1110.9
2016-Aug-23 09:33N 37°05' W 009°22'1110.7
2016-Aug-23 08:33N 36°55' W 009°19'1110.9
2016-Aug-23 07:33N 36°46' W 009°11'1111.1
2016-Aug-23 06:33N 36°43' W 008°57'  
Track history (hours):
 
Tides and Currents Weather Stations Pressure Air Temp Water Temp Dewpoint Dewpoint Depression Visibility Wind Speed Wind Dir Waves Ship Positions

Kathy C

Last reported at 2016-Aug-29 22:15 UTC. Time now 2016-Aug-30 01:15 UTC.
Position N 54°15' E 005°15'.

Length 106 m; draft 7 m.

Type: Cargo ship. MMSI: 235075591.

Date/timePositionNaut miles runAvg speedWind from/ knotsBaromVisibWave heightAir tempDewpointWater temp
2016-Aug-29 22:15N 54°15' E 005°15'710.2
2016-Aug-29 21:34N 54°08' E 005°09'1010.2
2016-Aug-29 20:33N 53°59' E 005°03'1010.2
2016-Aug-29 19:33N 53°49' E 004°58'5310.6
2016-Aug-29 14:33N 53°00' E 004°22'2311.2
2016-Aug-29 12:31N 52°41' E 004°02'86 9.5
2016-Aug-29 03:32N 51°38' E 002°27'10 9.6
2016-Aug-29 02:31N 51°30' E 002°17'1010.0
2016-Aug-29 01:34N 51°22' E 002°09'1110.5
2016-Aug-29 00:34N 51°13' E 002°01'1111.1
2016-Aug-28 23:34N 51°07' E 001°47'1212.2
2016-Aug-28 22:34N 50°57' E 001°34'6711.2
2016-Aug-28 16:33N 50°20' E 000°07'1111.6
2016-Aug-28 15:33N 50°17' W 000°10'1211.1
2016-Aug-28 14:26N 50°13' W 000°29'20710.4
2016-Aug-27 18:33N 48°51' W 005°21'10 9.6
2016-Aug-27 17:33N 48°46' W 005°34'10 9.5
2016-Aug-27 16:33N 48°38' W 005°41'10 9.5
2016-Aug-27 15:34N 48°29' W 005°48'10 9.6
2016-Aug-27 14:33N 48°21' W 005°54'10 9.9
2016-Aug-27 13:33N 48°12' W 006°01'1010.1
2016-Aug-27 12:33N 48°03' W 006°08'1010.3
2016-Aug-27 11:33N 47°54' W 006°16'2211.0
2016-Aug-27 09:33N 47°35' W 006°32'  
2016-Aug-24 08:04N 41°06' W 009°21'811.2
2016-Aug-24 07:23N 40°58' W 009°21'1211.0
2016-Aug-24 06:15N 40°46' W 009°24'6311.0
2016-Aug-24 00:32N 39°45' W 009°40'2311.1
2016-Aug-23 22:27N 39°22' W 009°46'1110.5
2016-Aug-23 21:24N 39°11' W 009°48'910.9
2016-Aug-23 20:33N 39°02' W 009°50'1110.8
2016-Aug-23 19:33N 38°51' W 009°51'1111.2
2016-Aug-23 18:33N 38°40' W 009°51'1111.2
2016-Aug-23 17:33N 38°29' W 009°47'1110.7
2016-Aug-23 16:33N 38°19' W 009°44'1110.5
2016-Aug-23 15:33N 38°09' W 009°41'1110.5
2016-Aug-23 14:33N 37°58' W 009°38'1110.7
2016-Aug-23 13:33N 37°48' W 009°35'1110.9
2016-Aug-23 12:34N 37°37' W 009°32'1111.0
2016-Aug-23 11:33N 37°27' W 009°28'1111.1
2016-Aug-23 10:33N 37°16' W 009°25'1110.9
2016-Aug-23 09:33N 37°05' W 009°22'1110.7
2016-Aug-23 08:33N 36°55' W 009°19'1110.9
2016-Aug-23 07:33N 36°46' W 009°11'1111.1
2016-Aug-23 06:33N 36°43' W 008°57'  

Dump ship's entire track history